Time,TemperatureF,DewpointF,PressureIn,WindDirection,WindDirectionDegrees,WindSpeedMPH,WindSpeedGustMPH,Humidity,HourlyPrecipIn,Conditions,Clouds,dailyrainin,SoftwareType,DateUTC
2013-06-29 00:11:00,72.3,71.7,29.56,SSE,157,1.1,-999.0,98,-99.99,,,0.00,Acu-Link.com,2013-06-29 05:11:00,
2013-06-29 00:26:00,72.1,71.5,29.55,ENE,67,0.0,-999.0,98,-99.99,,,0.00,Acu-Link.com,2013-06-29 05:26:00,
2013-06-29 00:43:00,72.1,71.5,29.54,SSE,157,0.0,-999.0,98,-99.99,,,0.00,Acu-Link.com,2013-06-29 05:43:00,
2013-06-29 00:58:00,72.0,71.4,29.54,ENE,67,0.0,-999.0,98,-99.99,,,0.00,Acu-Link.com,2013-06-29 05:58:00,
2013-06-29 01:14:00,71.8,71.2,29.53,ESE,112,0.0,-999.0,98,-99.99,,,0.00,Acu-Link.com,2013-06-29 06:14:00,
2013-06-29 01:29:00,71.6,71.0,29.52,NE,45,0.0,-999.0,98,-99.99,,,0.00,Acu-Link.com,2013-06-29 06:29:00,
2013-06-29 01:44:00,71.6,71.0,29.52,ESE,112,2.2,-999.0,98,-99.99,,,0.00,Acu-Link.com,2013-06-29 06:44:00,
2013-06-29 01:59:00,71.4,70.8,29.51,ESE,112,0.0,-999.0,98,-99.99,,,0.00,Acu-Link.com,2013-06-29 06:59:00,
2013-06-29 02:15:00,71.1,70.5,29.50,West,270,0.0,-999.0,98,-99.99,,,0.00,Acu-Link.com,2013-06-29 07:15:00,
2013-06-29 02:30:00,70.9,70.3,29.50,SW,225,0.0,-999.0,98,-99.99,,,0.00,Acu-Link.com,2013-06-29 07:30:00,
2013-06-29 02:45:00,70.5,69.9,29.50,NNW,337,0.0,-999.0,98,-99.99,,,0.00,Acu-Link.com,2013-06-29 07:45:00,
2013-06-29 03:01:00,70.2,69.6,29.51,SE,135,0.0,-999.0,98,-99.99,,,0.00,Acu-Link.com,2013-06-29 08:01:00,
2013-06-29 03:16:00,70.0,69.4,29.51,NE,45,0.0,-999.0,98,-99.99,,,0.00,Acu-Link.com,2013-06-29 08:16:00,
2013-06-29 03:32:00,70.0,69.4,29.50,NE,45,0.0,-999.0,98,-99.99,,,0.00,Acu-Link.com,2013-06-29 08:32:00,
2013-06-29 03:47:00,69.8,69.2,29.50,ENE,67,0.0,-999.0,98,-99.99,,,0.00,Acu-Link.com,2013-06-29 08:47:00,
2013-06-29 04:03:00,69.8,69.2,29.50,ENE,67,0.0,-999.0,98,-99.99,,,0.00,Acu-Link.com,2013-06-29 09:03:00,
2013-06-29 04:18:00,69.4,68.8,29.50,ENE,67,0.0,-999.0,98,-99.99,,,0.00,Acu-Link.com,2013-06-29 09:18:00,
2013-06-29 04:33:00,69.1,68.5,29.50,WNW,292,0.0,-999.0,98,-99.99,,,0.00,Acu-Link.com,2013-06-29 09:33:00,
2013-06-29 04:48:00,68.9,68.3,29.50,NE,45,0.0,-999.0,98,-99.99,,,0.00,Acu-Link.com,2013-06-29 09:48:00,
2013-06-29 05:04:00,68.5,67.9,29.50,NW,315,0.0,-999.0,98,-99.99,,,0.00,Acu-Link.com,2013-06-29 10:04:00,
2013-06-29 05:19:00,68.5,67.9,29.51,NNW,337,0.0,-999.0,98,-99.99,,,0.00,Acu-Link.com,2013-06-29 10:19:00,
2013-06-29 05:34:00,68.5,67.9,29.51,NE,45,0.0,-999.0,98,-99.99,,,0.00,Acu-Link.com,2013-06-29 10:34:00,
2013-06-29 05:50:00,68.5,67.9,29.51,NE,45,0.0,-999.0,98,-99.99,,,0.00,Acu-Link.com,2013-06-29 10:50:00,
2013-06-29 06:05:00,68.5,67.9,29.51,NE,45,0.0,-999.0,98,-99.99,,,0.00,Acu-Link.com,2013-06-29 11:05:00,
2013-06-29 06:20:00,68.4,67.8,29.52,NE,45,0.0,-999.0,98,-99.99,,,0.00,Acu-Link.com,2013-06-29 11:20:00,
2013-06-29 06:35:00,69.3,68.7,29.53,West,270,0.0,-999.0,98,-99.99,,,0.00,Acu-Link.com,2013-06-29 11:35:00,
2013-06-29 06:51:00,69.4,68.8,29.52,NNW,337,0.0,-999.0,98,-99.99,,,0.00,Acu-Link.com,2013-06-29 11:51:00,
2013-06-29 07:07:00,70.3,69.7,29.53,ESE,112,0.0,-999.0,98,-99.99,,,0.00,Acu-Link.com,2013-06-29 12:07:00,
2013-06-29 07:22:00,71.4,70.8,29.53,ESE,112,0.0,-999.0,98,-99.99,,,0.00,Acu-Link.com,2013-06-29 12:22:00,
2013-06-29 07:37:00,72.5,71.9,29.54,West,270,0.0,-999.0,98,-99.99,,,0.00,Acu-Link.com,2013-06-29 12:37:00,
2013-06-29 07:52:00,73.0,72.4,29.53,NNW,337,1.7,-999.0,98,-99.99,,,0.00,Acu-Link.com,2013-06-29 12:52:00,
2013-06-29 08:08:00,73.9,73.3,29.52,North,0,0.0,-999.0,98,-99.99,,,0.00,Acu-Link.com,2013-06-29 13:08:00,
2013-06-29 08:23:00,75.0,74.4,29.53,NE,45,1.7,-999.0,98,-99.99,,,0.00,Acu-Link.com,2013-06-29 13:23:00,
2013-06-29 08:38:00,76.3,75.7,29.53,NNE,22,1.7,-999.0,98,-99.99,,,0.00,Acu-Link.com,2013-06-29 13:38:00,
2013-06-29 08:53:00,77.5,76.9,29.52,East,90,0.0,-999.0,98,-99.99,,,0.00,Acu-Link.com,2013-06-29 13:53:00,
2013-06-29 09:08:00,78.6,78.0,29.52,NNW,337,1.1,-999.0,98,-99.99,,,0.00,Acu-Link.com,2013-06-29 14:08:00,
2013-06-29 09:23:00,79.7,79.1,29.52,NW,315,3.7,-999.0,98,-99.99,,,0.00,Acu-Link.com,2013-06-29 14:23:00,
2013-06-29 09:38:00,81.5,78.9,29.52,SSW,202,2.7,-999.0,92,-99.99,,,0.00,Acu-Link.com,2013-06-29 14:38:00,
2013-06-29 09:53:00,82.6,79.4,29.52,SSW,202,4.7,-999.0,90,-99.99,,,0.00,Acu-Link.com,2013-06-29 14:53:00,
2013-06-29 10:09:00,82.8,79.9,29.52,SSE,157,3.2,-999.0,91,-99.99,,,0.00,Acu-Link.com,2013-06-29 15:09:00,
2013-06-29 10:24:00,82.8,80.6,29.52,West,270,1.7,-999.0,93,-99.99,,,0.00,Acu-Link.com,2013-06-29 15:24:00,
2013-06-29 10:39:00,83.8,80.2,29.52,SSE,157,3.7,-999.0,89,-99.99,,,0.00,Acu-Link.com,2013-06-29 15:39:00,
2013-06-29 10:54:00,84.7,80.4,29.52,SE,135,3.7,-999.0,87,-99.99,,,0.00,Acu-Link.com,2013-06-29 15:54:00,
2013-06-29 11:09:00,84.6,79.9,29.52,SSW,202,2.7,-999.0,86,-99.99,,,0.00,Acu-Link.com,2013-06-29 16:09:00,
2013-06-29 11:24:00,86.5,80.7,29.51,SE,135,2.2,-999.0,83,-99.99,,,0.00,Acu-Link.com,2013-06-29 16:24:00,
2013-06-29 11:39:00,87.4,81.6,29.51,SW,225,3.7,-999.0,83,-99.99,,,0.00,Acu-Link.com,2013-06-29 16:39:00,
2013-06-29 11:55:00,87.1,81.7,29.51,WSW,247,3.7,-999.0,84,-99.99,,,0.00,Acu-Link.com,2013-06-29 16:55:00,
2013-06-29 12:10:00,88.7,80.1,29.50,SSE,157,4.2,-999.0,76,-99.99,,,0.00,Acu-Link.com,2013-06-29 17:10:00,
2013-06-29 12:25:00,88.9,79.9,29.50,SSW,202,3.7,-999.0,75,-99.99,,,0.00,Acu-Link.com,2013-06-29 17:25:00,
2013-06-29 12:41:00,89.6,80.6,29.51,NNE,22,6.3,-999.0,75,-99.99,,,0.00,Acu-Link.com,2013-06-29 17:41:00,
2013-06-29 12:56:00,90.7,81.2,29.50,SSW,202,4.7,-999.0,74,-99.99,,,0.00,Acu-Link.com,2013-06-29 17:56:00,
2013-06-29 13:11:00,91.9,79.3,29.49,NW,315,2.7,-999.0,67,-99.99,,,0.00,Acu-Link.com,2013-06-29 18:11:00,
2013-06-29 13:26:00,89.1,79.7,29.50,NW,315,3.7,-999.0,74,-99.99,,,0.00,Acu-Link.com,2013-06-29 18:26:00,
2013-06-29 13:42:00,89.6,80.6,29.49,West,270,6.8,-999.0,75,-99.99,,,0.00,Acu-Link.com,2013-06-29 18:42:00,
2013-06-29 13:57:00,90.9,82.3,29.49,West,270,2.2,-999.0,76,-99.99,,,0.00,Acu-Link.com,2013-06-29 18:57:00,
2013-06-29 14:12:00,94.3,80.7,29.48,NE,45,6.3,-999.0,65,-99.99,,,0.00,Acu-Link.com,2013-06-29 19:12:00,
2013-06-29 14:27:00,93.7,79.2,29.48,West,270,5.3,-999.0,63,-99.99,,,0.00,Acu-Link.com,2013-06-29 19:27:00,
2013-06-29 14:42:00,93.6,81.0,29.48,WNW,292,6.3,-999.0,67,-99.99,,,0.00,Acu-Link.com,2013-06-29 19:42:00,
2013-06-29 14:57:00,91.6,79.5,29.47,NE,45,5.3,-999.0,68,-99.99,,,0.00,Acu-Link.com,2013-06-29 19:57:00,
2013-06-29 15:12:00,92.7,78.7,29.46,West,270,5.3,-999.0,64,-99.99,,,0.00,Acu-Link.com,2013-06-29 20:12:00,
2013-06-29 15:27:00,93.2,76.7,29.46,NW,315,2.7,-999.0,59,-99.99,,,0.00,Acu-Link.com,2013-06-29 20:27:00,
2013-06-29 15:42:00,91.9,76.5,29.45,WNW,292,6.3,-999.0,61,-99.99,,,0.00,Acu-Link.com,2013-06-29 20:42:00,
2013-06-29 15:58:00,93.2,76.2,29.45,NW,315,6.8,-999.0,58,-99.99,,,0.00,Acu-Link.com,2013-06-29 20:58:00,
2013-06-29 16:13:00,92.5,75.5,29.45,NNW,337,9.9,-999.0,58,-99.99,,,0.00,Acu-Link.com,2013-06-29 21:13:00,
2013-06-29 16:28:00,92.3,75.3,29.45,NNW,337,8.9,-999.0,58,-99.99,,,0.00,Acu-Link.com,2013-06-29 21:28:00,
2013-06-29 16:43:00,92.7,74.7,29.45,SW,225,5.8,-999.0,56,-99.99,,,0.00,Acu-Link.com,2013-06-29 21:43:00,
2013-06-29 16:58:00,92.3,71.5,29.44,NNE,22,5.8,-999.0,51,-99.99,,,0.00,Acu-Link.com,2013-06-29 21:58:00,
2013-06-29 17:13:00,93.4,73.1,29.44,NNE,22,5.3,-999.0,52,-99.99,,,0.00,Acu-Link.com,2013-06-29 22:13:00,
2013-06-29 17:29:00,91.8,72.7,29.45,NNE,22,8.9,-999.0,54,-99.99,,,0.00,Acu-Link.com,2013-06-29 22:29:00,
2013-06-29 17:44:00,92.8,72.0,29.45,North,0,5.3,-999.0,51,-99.99,,,0.00,Acu-Link.com,2013-06-29 22:44:00,
2013-06-29 17:59:00,92.5,72.8,29.45,NNW,337,5.8,-999.0,53,-99.99,,,0.00,Acu-Link.com,2013-06-29 22:59:00,
2013-06-29 18:14:00,92.5,72.3,29.44,NW,315,7.3,-999.0,52,-99.99,,,0.00,Acu-Link.com,2013-06-29 23:14:00,
2013-06-29 18:29:00,92.1,71.3,29.45,West,270,4.7,-999.0,51,-99.99,,,0.00,Acu-Link.com,2013-06-29 23:29:00,
2013-06-29 18:44:00,91.8,69.9,29.45,NNE,22,6.3,-999.0,49,-99.99,,,0.00,Acu-Link.com,2013-06-29 23:44:00,
2013-06-29 18:59:00,91.9,71.7,29.45,NNW,337,1.7,-999.0,52,-99.99,,,0.00,Acu-Link.com,2013-06-29 23:59:00,
2013-06-29 19:20:00,90.9,70.8,29.46,West,270,1.7,-999.0,52,-99.99,,,0.00,Acu-Link.com,2013-06-30 00:20:00,
2013-06-29 19:35:00,89.1,71.3,29.46,WNW,292,0.0,-999.0,56,-99.99,,,0.00,Acu-Link.com,2013-06-30 00:35:00,
2013-06-29 19:50:00,86.0,71.9,29.47,SW,225,0.0,-999.0,63,-99.99,,,0.00,Acu-Link.com,2013-06-30 00:50:00,
2013-06-29 20:05:00,82.6,71.8,29.47,West,270,0.0,-999.0,70,-99.99,,,0.00,Acu-Link.com,2013-06-30 01:05:00,
2013-06-29 20:20:00,80.2,72.3,29.47,West,270,0.0,-999.0,77,-99.99,,,0.00,Acu-Link.com,2013-06-30 01:20:00,
2013-06-29 20:35:00,78.3,71.6,29.48,West,270,0.0,-999.0,80,-99.99,,,0.00,Acu-Link.com,2013-06-30 01:35:00,
2013-06-29 20:51:00,76.5,71.6,29.47,WNW,292,0.0,-999.0,85,-99.99,,,0.00,Acu-Link.com,2013-06-30 01:51:00,
2013-06-29 21:07:00,74.8,71.0,29.48,WNW,292,0.0,-999.0,88,-99.99,,,0.00,Acu-Link.com,2013-06-30 02:07:00,
2013-06-29 21:22:00,73.8,71.0,29.47,West,270,0.0,-999.0,91,-99.99,,,0.00,Acu-Link.com,2013-06-30 02:22:00,
2013-06-29 21:39:00,73.0,70.9,29.48,ENE,67,0.0,-999.0,93,-99.99,,,0.00,Acu-Link.com,2013-06-30 02:39:00,
2013-06-29 21:54:00,72.1,71.5,29.49,ENE,67,0.0,-999.0,98,-99.99,,,0.00,Acu-Link.com,2013-06-30 02:54:00,
2013-06-29 22:10:00,71.2,70.6,29.50,NE,45,0.0,-999.0,98,-99.99,,,0.00,Acu-Link.com,2013-06-30 03:10:00,
2013-06-29 22:25:00,70.7,70.1,29.50,NNE,22,0.0,-999.0,98,-99.99,,,0.00,Acu-Link.com,2013-06-30 03:25:00,
2013-06-29 22:41:00,69.6,69.0,29.50,SW,225,0.0,-999.0,98,-99.99,,,0.00,Acu-Link.com,2013-06-30 03:41:00,
2013-06-29 22:56:00,68.9,68.3,29.51,SSW,202,0.0,-999.0,98,-99.99,,,0.00,Acu-Link.com,2013-06-30 03:56:00,
2013-06-29 23:11:00,68.5,67.9,29.51,ENE,67,0.0,-999.0,98,-99.99,,,0.00,Acu-Link.com,2013-06-30 04:11:00,
2013-06-29 23:31:00,68.4,67.8,29.51,WNW,292,0.0,-999.0,98,-99.99,,,0.00,Acu-Link.com,2013-06-30 04:31:00,
2013-06-29 23:46:00,68.4,67.8,29.50,WNW,292,0.0,-999.0,98,-99.99,,,0.00,Acu-Link.com,2013-06-30 04:46:00,